sensor_id;sensor_type;location;lat;lon;timestamp;P1;durP1;ratioP1;P2;durP2;ratioP2
61696;SDS011;47610;52.252;20.922;2023-03-14T00:03:27;11.00;;;5.20;;
61696;SDS011;47610;52.252;20.922;2023-03-14T00:08:31;11.10;;;5.50;;
61696;SDS011;47610;52.252;20.922;2023-03-14T00:13:35;12.80;;;5.80;;
61696;SDS011;47610;52.252;20.922;2023-03-14T00:18:41;9.70;;;5.80;;
61696;SDS011;47610;52.252;20.922;2023-03-14T00:23:45;9.40;;;4.70;;
61696;SDS011;47610;52.252;20.922;2023-03-14T00:28:50;11.80;;;6.10;;
61696;SDS011;47610;52.252;20.922;2023-03-14T00:33:55;10.80;;;5.50;;
61696;SDS011;47610;52.252;20.922;2023-03-14T00:39:00;12.00;;;5.90;;
61696;SDS011;47610;52.252;20.922;2023-03-14T00:44:03;13.80;;;6.50;;
61696;SDS011;47610;52.252;20.922;2023-03-14T00:49:07;9.70;;;5.50;;
61696;SDS011;47610;52.252;20.922;2023-03-14T00:54:11;11.40;;;5.90;;
61696;SDS011;47610;52.252;20.922;2023-03-14T00:59:14;12.10;;;5.40;;
61696;SDS011;47610;52.252;20.922;2023-03-14T01:04:18;12.50;;;6.40;;
61696;SDS011;47610;52.252;20.922;2023-03-14T01:09:22;14.70;;;6.20;;
61696;SDS011;47610;52.252;20.922;2023-03-14T01:14:26;11.30;;;6.00;;
61696;SDS011;47610;52.252;20.922;2023-03-14T01:19:30;10.00;;;5.70;;
61696;SDS011;47610;52.252;20.922;2023-03-14T01:24:33;13.70;;;5.80;;
61696;SDS011;47610;52.252;20.922;2023-03-14T01:29:38;12.70;;;6.20;;
61696;SDS011;47610;52.252;20.922;2023-03-14T01:34:41;13.40;;;6.60;;
61696;SDS011;47610;52.252;20.922;2023-03-14T01:39:45;10.30;;;5.50;;
61696;SDS011;47610;52.252;20.922;2023-03-14T01:44:51;13.30;;;6.80;;
61696;SDS011;47610;52.252;20.922;2023-03-14T01:49:58;11.30;;;6.10;;
61696;SDS011;47610;52.252;20.922;2023-03-14T01:55:07;15.60;;;6.20;;
61696;SDS011;47610;52.252;20.922;2023-03-14T02:00:17;12.00;;;5.50;;
61696;SDS011;47610;52.252;20.922;2023-03-14T02:05:23;11.40;;;6.20;;
61696;SDS011;47610;52.252;20.922;2023-03-14T02:10:34;10.70;;;5.40;;
61696;SDS011;47610;52.252;20.922;2023-03-14T02:15:44;11.70;;;6.30;;
61696;SDS011;47610;52.252;20.922;2023-03-14T02:20:51;10.60;;;5.70;;
61696;SDS011;47610;52.252;20.922;2023-03-14T02:26:02;11.70;;;5.90;;
61696;SDS011;47610;52.252;20.922;2023-03-14T02:31:12;12.90;;;6.10;;
61696;SDS011;47610;52.252;20.922;2023-03-14T02:36:18;13.10;;;6.80;;
61696;SDS011;47610;52.252;20.922;2023-03-14T02:41:22;11.20;;;6.20;;
61696;SDS011;47610;52.252;20.922;2023-03-14T02:46:26;10.80;;;5.60;;
61696;SDS011;47610;52.252;20.922;2023-03-14T02:51:29;10.00;;;5.90;;
61696;SDS011;47610;52.252;20.922;2023-03-14T02:56:34;11.00;;;5.70;;
61696;SDS011;47610;52.252;20.922;2023-03-14T03:01:38;13.10;;;6.00;;
61696;SDS011;47610;52.252;20.922;2023-03-14T03:06:42;10.10;;;5.80;;
61696;SDS011;47610;52.252;20.922;2023-03-14T03:11:46;8.50;;;4.60;;
61696;SDS011;47610;52.252;20.922;2023-03-14T03:16:49;11.20;;;5.90;;
61696;SDS011;47610;52.252;20.922;2023-03-14T03:21:52;8.00;;;4.40;;
61696;SDS011;47610;52.252;20.922;2023-03-14T03:26:56;11.70;;;5.40;;
61696;SDS011;47610;52.252;20.922;2023-03-14T03:31:59;12.30;;;5.70;;
61696;SDS011;47610;52.252;20.922;2023-03-14T03:37:02;12.30;;;5.80;;
61696;SDS011;47610;52.252;20.922;2023-03-14T03:42:07;9.40;;;5.00;;
61696;SDS011;47610;52.252;20.922;2023-03-14T03:47:11;9.50;;;4.60;;
61696;SDS011;47610;52.252;20.922;2023-03-14T03:52:15;9.60;;;4.70;;
61696;SDS011;47610;52.252;20.922;2023-03-14T03:57:18;7.70;;;4.60;;
61696;SDS011;47610;52.252;20.922;2023-03-14T04:02:22;8.10;;;4.30;;
61696;SDS011;47610;52.252;20.922;2023-03-14T04:12:28;8.50;;;4.70;;
61696;SDS011;47610;52.252;20.922;2023-03-14T04:17:31;10.30;;;5.00;;
61696;SDS011;47610;52.252;20.922;2023-03-14T04:22:34;11.50;;;4.80;;
61696;SDS011;47610;52.252;20.922;2023-03-14T04:27:38;8.10;;;4.80;;
61696;SDS011;47610;52.252;20.922;2023-03-14T04:32:41;7.20;;;3.90;;
61696;SDS011;47610;52.252;20.922;2023-03-14T04:37:44;7.30;;;4.20;;
61696;SDS011;47610;52.252;20.922;2023-03-14T04:42:48;9.40;;;4.50;;
61696;SDS011;47610;52.252;20.922;2023-03-14T04:47:51;8.40;;;4.50;;
61696;SDS011;47610;52.252;20.922;2023-03-14T04:52:55;7.50;;;4.00;;
61696;SDS011;47610;52.252;20.922;2023-03-14T04:57:58;8.00;;;4.30;;
61696;SDS011;47610;52.252;20.922;2023-03-14T05:03:02;8.20;;;4.30;;
61696;SDS011;47610;52.252;20.922;2023-03-14T05:08:06;14.70;;;4.80;;
61696;SDS011;47610;52.252;20.922;2023-03-14T05:13:09;6.30;;;3.60;;
61696;SDS011;47610;52.252;20.922;2023-03-14T05:18:13;7.30;;;4.20;;
61696;SDS011;47610;52.252;20.922;2023-03-14T05:23:17;7.50;;;4.10;;
61696;SDS011;47610;52.252;20.922;2023-03-14T05:28:20;6.70;;;4.30;;
61696;SDS011;47610;52.252;20.922;2023-03-14T05:33:23;8.10;;;4.20;;
61696;SDS011;47610;52.252;20.922;2023-03-14T05:38:26;10.00;;;4.00;;
61696;SDS011;47610;52.252;20.922;2023-03-14T05:43:29;8.30;;;4.00;;
61696;SDS011;47610;52.252;20.922;2023-03-14T05:48:33;6.00;;;3.70;;
61696;SDS011;47610;52.252;20.922;2023-03-14T05:53:36;8.30;;;4.60;;
61696;SDS011;47610;52.252;20.922;2023-03-14T05:58:39;7.00;;;3.60;;
61696;SDS011;47610;52.252;20.922;2023-03-14T06:03:43;6.70;;;3.80;;
61696;SDS011;47610;52.252;20.922;2023-03-14T06:08:46;6.50;;;3.90;;
61696;SDS011;47610;52.252;20.922;2023-03-14T06:13:49;8.40;;;4.00;;
61696;SDS011;47610;52.252;20.922;2023-03-14T06:18:53;5.70;;;4.20;;
61696;SDS011;47610;52.252;20.922;2023-03-14T06:23:57;7.30;;;4.10;;
61696;SDS011;47610;52.252;20.922;2023-03-14T06:29:00;7.20;;;4.10;;
61696;SDS011;47610;52.252;20.922;2023-03-14T06:34:04;8.90;;;3.60;;
61696;SDS011;47610;52.252;20.922;2023-03-14T06:39:07;7.90;;;4.00;;
61696;SDS011;47610;52.252;20.922;2023-03-14T06:44:10;7.70;;;4.10;;
61696;SDS011;47610;52.252;20.922;2023-03-14T06:49:14;9.10;;;4.10;;
61696;SDS011;47610;52.252;20.922;2023-03-14T06:54:17;8.50;;;4.00;;
61696;SDS011;47610;52.252;20.922;2023-03-14T06:59:20;10.30;;;4.00;;
61696;SDS011;47610;52.252;20.922;2023-03-14T07:04:24;11.60;;;4.20;;
61696;SDS011;47610;52.252;20.922;2023-03-14T07:09:27;6.30;;;3.80;;
61696;SDS011;47610;52.252;20.922;2023-03-14T07:14:30;6.90;;;3.70;;
61696;SDS011;47610;52.252;20.922;2023-03-14T07:19:34;9.20;;;4.00;;
61696;SDS011;47610;52.252;20.922;2023-03-14T07:24:37;9.60;;;4.60;;
61696;SDS011;47610;52.252;20.922;2023-03-14T07:29:40;6.70;;;3.70;;
61696;SDS011;47610;52.252;20.922;2023-03-14T07:34:45;7.20;;;3.60;;
61696;SDS011;47610;52.252;20.922;2023-03-14T07:39:49;10.10;;;3.70;;
61696;SDS011;47610;52.252;20.922;2023-03-14T07:44:53;4.50;;;3.00;;
61696;SDS011;47610;52.252;20.922;2023-03-14T07:49:58;6.60;;;3.20;;
61696;SDS011;47610;52.252;20.922;2023-03-14T07:55:03;7.80;;;3.60;;
61696;SDS011;47610;52.252;20.922;2023-03-14T08:00:11;7.00;;;4.00;;
61696;SDS011;47610;52.252;20.922;2023-03-14T08:05:15;6.60;;;3.40;;
61696;SDS011;47610;52.252;20.922;2023-03-14T08:10:18;6.70;;;3.10;;
61696;SDS011;47610;52.252;20.922;2023-03-14T08:20:25;8.70;;;3.60;;
61696;SDS011;47610;52.252;20.922;2023-03-14T08:25:29;6.90;;;3.00;;
61696;SDS011;47610;52.252;20.922;2023-03-14T08:30:33;8.20;;;3.00;;
61696;SDS011;47610;52.252;20.922;2023-03-14T08:35:36;7.20;;;3.30;;
61696;SDS011;47610;52.252;20.922;2023-03-14T08:40:40;5.50;;;3.20;;
61696;SDS011;47610;52.252;20.922;2023-03-14T08:45:43;11.00;;;3.50;;
61696;SDS011;47610;52.252;20.922;2023-03-14T08:50:48;7.60;;;3.40;;
61696;SDS011;47610;52.252;20.922;2023-03-14T08:55:54;7.70;;;3.50;;
61696;SDS011;47610;52.252;20.922;2023-03-14T09:00:57;5.20;;;3.40;;
61696;SDS011;47610;52.252;20.922;2023-03-14T09:06:05;8.20;;;2.70;;
61696;SDS011;47610;52.252;20.922;2023-03-14T09:11:10;6.10;;;3.30;;
61696;SDS011;47610;52.252;20.922;2023-03-14T09:16:13;5.30;;;2.90;;
61696;SDS011;47610;52.252;20.922;2023-03-14T09:21:17;8.30;;;3.50;;
61696;SDS011;47610;52.252;20.922;2023-03-14T09:26:21;8.70;;;3.40;;
61696;SDS011;47610;52.252;20.922;2023-03-14T09:31:24;6.00;;;2.80;;
61696;SDS011;47610;52.252;20.922;2023-03-14T09:36:27;5.40;;;2.50;;
61696;SDS011;47610;52.252;20.922;2023-03-14T09:41:31;7.90;;;3.00;;
61696;SDS011;47610;52.252;20.922;2023-03-14T09:46:40;6.60;;;3.10;;
61696;SDS011;47610;52.252;20.922;2023-03-14T09:51:47;5.80;;;2.80;;
61696;SDS011;47610;52.252;20.922;2023-03-14T09:56:54;12.40;;;2.80;;
61696;SDS011;47610;52.252;20.922;2023-03-14T10:01:58;5.10;;;2.80;;
61696;SDS011;47610;52.252;20.922;2023-03-14T10:07:14;5.00;;;2.80;;
61696;SDS011;47610;52.252;20.922;2023-03-14T10:12:19;5.70;;;2.90;;
61696;SDS011;47610;52.252;20.922;2023-03-14T10:17:37;7.70;;;3.00;;
61696;SDS011;47610;52.252;20.922;2023-03-14T10:22:42;5.30;;;2.60;;
61696;SDS011;47610;52.252;20.922;2023-03-14T10:27:45;6.20;;;2.70;;
61696;SDS011;47610;52.252;20.922;2023-03-14T10:32:48;6.30;;;2.90;;
61696;SDS011;47610;52.252;20.922;2023-03-14T10:37:52;8.20;;;3.10;;
61696;SDS011;47610;52.252;20.922;2023-03-14T10:42:59;7.00;;;2.80;;
61696;SDS011;47610;52.252;20.922;2023-03-14T10:48:18;9.40;;;3.00;;
61696;SDS011;47610;52.252;20.922;2023-03-14T10:53:23;5.10;;;2.60;;
61696;SDS011;47610;52.252;20.922;2023-03-14T10:58:27;6.50;;;2.70;;
61696;SDS011;47610;52.252;20.922;2023-03-14T11:03:34;6.40;;;3.10;;
61696;SDS011;47610;52.252;20.922;2023-03-14T11:08:44;5.70;;;2.80;;
61696;SDS011;47610;52.252;20.922;2023-03-14T11:13:57;7.40;;;2.70;;
61696;SDS011;47610;52.252;20.922;2023-03-14T11:19:19;8.50;;;3.00;;
61696;SDS011;47610;52.252;20.922;2023-03-14T11:24:36;6.60;;;2.80;;
61696;SDS011;47610;52.252;20.922;2023-03-14T11:29:51;5.60;;;3.20;;
61696;SDS011;47610;52.252;20.922;2023-03-14T11:34:59;5.60;;;3.20;;
61696;SDS011;47610;52.252;20.922;2023-03-14T11:40:08;10.60;;;3.50;;
61696;SDS011;47610;52.252;20.922;2023-03-14T11:45:18;6.30;;;3.50;;
61696;SDS011;47610;52.252;20.922;2023-03-14T11:50:28;7.00;;;3.30;;
61696;SDS011;47610;52.252;20.922;2023-03-14T11:55:34;7.90;;;3.20;;
61696;SDS011;47610;52.252;20.922;2023-03-14T12:00:40;8.40;;;4.00;;
61696;SDS011;47610;52.252;20.922;2023-03-14T12:05:52;7.30;;;3.90;;
61696;SDS011;47610;52.252;20.922;2023-03-14T12:11:04;10.40;;;3.90;;
61696;SDS011;47610;52.252;20.922;2023-03-14T12:16:27;6.60;;;3.50;;
61696;SDS011;47610;52.252;20.922;2023-03-14T12:21:44;7.50;;;3.80;;
61696;SDS011;47610;52.252;20.922;2023-03-14T12:26:53;6.60;;;3.80;;
61696;SDS011;47610;52.252;20.922;2023-03-14T12:32:08;7.40;;;3.30;;
61696;SDS011;47610;52.252;20.922;2023-03-14T12:37:28;9.60;;;3.70;;
61696;SDS011;47610;52.252;20.922;2023-03-14T12:42:40;6.80;;;3.90;;
61696;SDS011;47610;52.252;20.922;2023-03-14T12:47:55;6.90;;;4.20;;
61696;SDS011;47610;52.252;20.922;2023-03-14T12:58:37;6.10;;;3.80;;
61696;SDS011;47610;52.252;20.922;2023-03-14T13:03:46;9.10;;;4.60;;
61696;SDS011;47610;52.252;20.922;2023-03-14T13:08:52;11.40;;;4.80;;
61696;SDS011;47610;52.252;20.922;2023-03-14T13:13:57;9.70;;;4.10;;
61696;SDS011;47610;52.252;20.922;2023-03-14T13:19:02;7.50;;;4.40;;
61696;SDS011;47610;52.252;20.922;2023-03-14T13:24:21;10.80;;;4.80;;
61696;SDS011;47610;52.252;20.922;2023-03-14T13:29:27;9.30;;;4.70;;
61696;SDS011;47610;52.252;20.922;2023-03-14T13:34:32;10.40;;;4.80;;
61696;SDS011;47610;52.252;20.922;2023-03-14T13:39:38;8.30;;;4.70;;
61696;SDS011;47610;52.252;20.922;2023-03-14T13:44:42;9.70;;;5.00;;
61696;SDS011;47610;52.252;20.922;2023-03-14T13:49:47;9.70;;;6.20;;
61696;SDS011;47610;52.252;20.922;2023-03-14T13:54:53;12.10;;;5.20;;
61696;SDS011;47610;52.252;20.922;2023-03-14T14:00:00;9.70;;;5.00;;
61696;SDS011;47610;52.252;20.922;2023-03-14T14:05:08;13.40;;;5.10;;
61696;SDS011;47610;52.252;20.922;2023-03-14T14:10:13;11.20;;;5.60;;
61696;SDS011;47610;52.252;20.922;2023-03-14T14:15:17;8.50;;;5.20;;
61696;SDS011;47610;52.252;20.922;2023-03-14T14:20:26;12.10;;;5.30;;
61696;SDS011;47610;52.252;20.922;2023-03-14T14:25:34;10.30;;;5.70;;
61696;SDS011;47610;52.252;20.922;2023-03-14T14:30:38;10.90;;;6.60;;
61696;SDS011;47610;52.252;20.922;2023-03-14T14:35:41;12.40;;;6.50;;
61696;SDS011;47610;52.252;20.922;2023-03-14T14:40:51;12.00;;;6.00;;
61696;SDS011;47610;52.252;20.922;2023-03-14T14:45:57;11.60;;;5.20;;
61696;SDS011;47610;52.252;20.922;2023-03-14T14:51:02;11.80;;;5.20;;
61696;SDS011;47610;52.252;20.922;2023-03-14T14:56:13;7.80;;;4.40;;
61696;SDS011;47610;52.252;20.922;2023-03-14T15:01:20;9.70;;;5.50;;
61696;SDS011;47610;52.252;20.922;2023-03-14T15:06:28;8.50;;;4.20;;
61696;SDS011;47610;52.252;20.922;2023-03-14T15:11:32;7.60;;;4.40;;
61696;SDS011;47610;52.252;20.922;2023-03-14T15:16:36;8.90;;;4.60;;
61696;SDS011;47610;52.252;20.922;2023-03-14T15:21:40;10.80;;;4.90;;
61696;SDS011;47610;52.252;20.922;2023-03-14T15:26:46;10.00;;;4.90;;
61696;SDS011;47610;52.252;20.922;2023-03-14T15:31:49;8.80;;;5.40;;
61696;SDS011;47610;52.252;20.922;2023-03-14T15:36:52;10.90;;;5.00;;
61696;SDS011;47610;52.252;20.922;2023-03-14T15:41:56;7.80;;;4.60;;
61696;SDS011;47610;52.252;20.922;2023-03-14T15:46:59;11.60;;;5.30;;
61696;SDS011;47610;52.252;20.922;2023-03-14T15:52:04;9.00;;;4.40;;
61696;SDS011;47610;52.252;20.922;2023-03-14T16:02:11;9.70;;;5.50;;
61696;SDS011;47610;52.252;20.922;2023-03-14T16:07:15;9.50;;;5.50;;
61696;SDS011;47610;52.252;20.922;2023-03-14T16:12:18;10.00;;;5.10;;
61696;SDS011;47610;52.252;20.922;2023-03-14T16:17:22;8.40;;;5.50;;
61696;SDS011;47610;52.252;20.922;2023-03-14T16:22:25;10.60;;;6.10;;
61696;SDS011;47610;52.252;20.922;2023-03-14T16:27:29;12.00;;;6.10;;
61696;SDS011;47610;52.252;20.922;2023-03-14T16:37:35;10.70;;;5.60;;
61696;SDS011;47610;52.252;20.922;2023-03-14T16:42:38;10.20;;;5.70;;
61696;SDS011;47610;52.252;20.922;2023-03-14T16:47:42;10.70;;;6.30;;
61696;SDS011;47610;52.252;20.922;2023-03-14T16:52:46;9.50;;;5.10;;
61696;SDS011;47610;52.252;20.922;2023-03-14T16:57:50;11.70;;;5.90;;
61696;SDS011;47610;52.252;20.922;2023-03-14T17:02:53;9.40;;;5.50;;
61696;SDS011;47610;52.252;20.922;2023-03-14T17:07:57;8.80;;;5.30;;
61696;SDS011;47610;52.252;20.922;2023-03-14T17:18:04;12.30;;;5.50;;
61696;SDS011;47610;52.252;20.922;2023-03-14T17:23:08;11.00;;;5.30;;
61696;SDS011;47610;52.252;20.922;2023-03-14T17:28:11;10.70;;;6.60;;
61696;SDS011;47610;52.252;20.922;2023-03-14T17:33:15;14.90;;;6.50;;
61696;SDS011;47610;52.252;20.922;2023-03-14T17:38:18;11.10;;;6.30;;
61696;SDS011;47610;52.252;20.922;2023-03-14T17:43:22;12.00;;;7.00;;
61696;SDS011;47610;52.252;20.922;2023-03-14T17:48:27;11.70;;;7.40;;
61696;SDS011;47610;52.252;20.922;2023-03-14T17:53:32;12.50;;;7.10;;
61696;SDS011;47610;52.252;20.922;2023-03-14T17:58:36;15.40;;;8.10;;
61696;SDS011;47610;52.252;20.922;2023-03-14T18:03:40;15.70;;;8.70;;
61696;SDS011;47610;52.252;20.922;2023-03-14T18:08:44;13.60;;;8.00;;
61696;SDS011;47610;52.252;20.922;2023-03-14T18:13:49;13.20;;;7.00;;
61696;SDS011;47610;52.252;20.922;2023-03-14T18:18:53;10.80;;;6.10;;
61696;SDS011;47610;52.252;20.922;2023-03-14T18:23:56;9.50;;;6.00;;
61696;SDS011;47610;52.252;20.922;2023-03-14T18:29:00;13.70;;;6.90;;
61696;SDS011;47610;52.252;20.922;2023-03-14T18:34:05;11.00;;;5.80;;
61696;SDS011;47610;52.252;20.922;2023-03-14T18:39:10;10.40;;;5.80;;
61696;SDS011;47610;52.252;20.922;2023-03-14T18:44:13;12.00;;;6.00;;
61696;SDS011;47610;52.252;20.922;2023-03-14T18:49:17;8.70;;;6.00;;
61696;SDS011;47610;52.252;20.922;2023-03-14T18:54:21;9.50;;;5.30;;
61696;SDS011;47610;52.252;20.922;2023-03-14T18:59:24;10.00;;;5.40;;
61696;SDS011;47610;52.252;20.922;2023-03-14T19:04:28;8.20;;;5.20;;
61696;SDS011;47610;52.252;20.922;2023-03-14T19:09:31;9.30;;;5.10;;
61696;SDS011;47610;52.252;20.922;2023-03-14T19:14:35;9.70;;;5.40;;
61696;SDS011;47610;52.252;20.922;2023-03-14T19:19:38;10.30;;;5.60;;
61696;SDS011;47610;52.252;20.922;2023-03-14T19:24:42;10.90;;;5.60;;
61696;SDS011;47610;52.252;20.922;2023-03-14T19:34:47;10.40;;;5.60;;
61696;SDS011;47610;52.252;20.922;2023-03-14T19:39:51;14.30;;;6.20;;
61696;SDS011;47610;52.252;20.922;2023-03-14T19:44:54;10.50;;;5.40;;
61696;SDS011;47610;52.252;20.922;2023-03-14T19:49:57;10.90;;;5.50;;
61696;SDS011;47610;52.252;20.922;2023-03-14T19:55:02;11.70;;;6.10;;
61696;SDS011;47610;52.252;20.922;2023-03-14T20:00:10;11.90;;;5.60;;
61696;SDS011;47610;52.252;20.922;2023-03-14T20:05:16;11.90;;;5.90;;
61696;SDS011;47610;52.252;20.922;2023-03-14T20:10:20;12.00;;;6.90;;
61696;SDS011;47610;52.252;20.922;2023-03-14T20:15:23;10.50;;;5.50;;
61696;SDS011;47610;52.252;20.922;2023-03-14T20:20:27;12.40;;;6.70;;
61696;SDS011;47610;52.252;20.922;2023-03-14T20:25:30;13.20;;;6.70;;
61696;SDS011;47610;52.252;20.922;2023-03-14T20:30:33;13.30;;;6.80;;
61696;SDS011;47610;52.252;20.922;2023-03-14T20:35:36;11.00;;;6.60;;
61696;SDS011;47610;52.252;20.922;2023-03-14T20:40:39;11.00;;;6.40;;
61696;SDS011;47610;52.252;20.922;2023-03-14T20:45:51;11.20;;;6.50;;
61696;SDS011;47610;52.252;20.922;2023-03-14T20:50:57;11.70;;;6.40;;
61696;SDS011;47610;52.252;20.922;2023-03-14T20:56:01;10.30;;;6.00;;
61696;SDS011;47610;52.252;20.922;2023-03-14T21:01:05;13.70;;;7.60;;
61696;SDS011;47610;52.252;20.922;2023-03-14T21:06:09;12.30;;;6.90;;
61696;SDS011;47610;52.252;20.922;2023-03-14T21:11:14;11.70;;;6.90;;
61696;SDS011;47610;52.252;20.922;2023-03-14T21:16:17;13.30;;;7.10;;
61696;SDS011;47610;52.252;20.922;2023-03-14T21:21:20;13.60;;;7.60;;
61696;SDS011;47610;52.252;20.922;2023-03-14T21:26:24;12.40;;;6.30;;
61696;SDS011;47610;52.252;20.922;2023-03-14T21:31:27;14.40;;;6.60;;
61696;SDS011;47610;52.252;20.922;2023-03-14T21:36:31;12.30;;;6.50;;
61696;SDS011;47610;52.252;20.922;2023-03-14T21:41:34;11.60;;;6.70;;
61696;SDS011;47610;52.252;20.922;2023-03-14T21:51:40;11.10;;;6.20;;
61696;SDS011;47610;52.252;20.922;2023-03-14T21:56:45;10.40;;;6.00;;
61696;SDS011;47610;52.252;20.922;2023-03-14T22:01:48;11.50;;;7.10;;
61696;SDS011;47610;52.252;20.922;2023-03-14T22:06:52;12.60;;;7.50;;
61696;SDS011;47610;52.252;20.922;2023-03-14T22:11:55;10.70;;;6.40;;
61696;SDS011;47610;52.252;20.922;2023-03-14T22:16:58;13.80;;;6.30;;
61696;SDS011;47610;52.252;20.922;2023-03-14T22:22:01;12.40;;;7.10;;
61696;SDS011;47610;52.252;20.922;2023-03-14T22:27:05;12.30;;;6.30;;
61696;SDS011;47610;52.252;20.922;2023-03-14T22:32:10;13.00;;;6.70;;
61696;SDS011;47610;52.252;20.922;2023-03-14T22:37:14;10.70;;;6.40;;
61696;SDS011;47610;52.252;20.922;2023-03-14T22:42:18;12.00;;;6.60;;
61696;SDS011;47610;52.252;20.922;2023-03-14T22:47:21;11.80;;;6.50;;
61696;SDS011;47610;52.252;20.922;2023-03-14T22:52:24;10.30;;;5.70;;
61696;SDS011;47610;52.252;20.922;2023-03-14T22:57:32;14.50;;;8.00;;
61696;SDS011;47610;52.252;20.922;2023-03-14T23:02:36;14.50;;;6.30;;
61696;SDS011;47610;52.252;20.922;2023-03-14T23:07:42;10.70;;;5.90;;
61696;SDS011;47610;52.252;20.922;2023-03-14T23:12:45;13.50;;;6.70;;
61696;SDS011;47610;52.252;20.922;2023-03-14T23:17:49;10.40;;;5.60;;
61696;SDS011;47610;52.252;20.922;2023-03-14T23:22:52;12.00;;;6.50;;
61696;SDS011;47610;52.252;20.922;2023-03-14T23:27:57;11.60;;;6.30;;
61696;SDS011;47610;52.252;20.922;2023-03-14T23:33:00;9.20;;;5.80;;
61696;SDS011;47610;52.252;20.922;2023-03-14T23:38:04;9.40;;;6.10;;
61696;SDS011;47610;52.252;20.922;2023-03-14T23:43:07;10.50;;;6.40;;
61696;SDS011;47610;52.252;20.922;2023-03-14T23:48:11;11.50;;;6.40;;
61696;SDS011;47610;52.252;20.922;2023-03-14T23:53:16;11.80;;;6.60;;
61696;SDS011;47610;52.252;20.922;2023-03-14T23:58:19;12.00;;;6.40;;
